Detall de PIREP

Printer-friendly versionPDF version

[2013/07/14 04:56:00]
Flight IATA:CT2110
Pilot Number:041
Company ICAO:CAT
Aircraft Type:A343/E
PAX:251
Departing Airport: LEVC
Destination Airport: LEST
Alternate Airport:LEMG
Online: VATSIM
Route:CENTA A33 PRADO UN733 FORNO
Flight Level:FL330
No Slew and time accel
No pause
Crash detect
Detect pilot in Cockpit between each 30 and 45 minutes
04:56 Zero fuel Weight: 391580 Lbs, Fuel Weight: 37059 Lbs
04:56 VATSIM:LEVC 140430Z 31004KT 9999 FEW025 24/19 Q1017 NOSIG
04:56 VATSIM:LEST 140430Z VRB02KT 5000 BR NSC 17/17 Q1020 NOSIG
04:57 VOICE CATALONIAN
05:05 Parking Brakes off
05:10 Take-off
05:10 Take off Weight: 427116 Lbs
05:10 Wind: 353º @ 002 Knots Heading: 296º
05:10 POS N39º 29´ 36´´ W000º 29´ 35´´
05:10 Gear Up: 206 Knots
05:10 Flaps:3 at 206 Knots
05:10 Flaps:2 at 221 Knots
05:10 Flaps:1 at 223 Knots
05:10 Flaps:3 at 228 Knots
05:10 Flaps:1 at 228 Knots
05:10 Flaps:2 at 228 Knots
05:10 Flaps:1 at 227 Knots
05:10 Flaps:0 at 220 Knots
05:24 TOC
05:24 Fuel Weight: 29247 Lb
05:25 Wind:268º@039 Knots Heading: 296º Ground Speed: 453 Knots Altitude 33146 ft
05:40 Wind:290º@009 Knots Heading: 295º Ground Speed: 465 Knots Altitude 33182 ft
05:51 TOD
05:51 Fuel Weight: 22356 Lb
05:55 Wind:028º@016 Knots Heading: 306º Ground Speed: 359 Knots Altitude 24183 ft
06:10 Wind:063º@016 Knots Heading: 304º Ground Speed: 275 Knots Altitude 4914 ft
06:19 Flaps:1 at 256 Knots
06:19 Flaps:3 at 234 Knots
06:19 Flaps:4 at 191 Knots
06:20 Gear Down: 178 Knots
06:20 Flaps:5 at 156 Knots
06:22 TouchDown:Rate -133 ft/min Speed: 132 Knots
06:22 VATSIM:LEST 140600Z 00000KT 3000 BR SCT007 17/17 Q1020 NOSIG
06:22 Land
06:22 Wind:069º@002 Knots
06:22 Heading: 161º
06:22 Flight Duration: 01:12
06:22 Landing Weight: 410608 Lbs
06:22 POSN42º 53´ 48´´ W008º 24´ 54´´
06:24 Parking brakes on
06:24 Block to Block Duration: 01:19
06:24 Final Fuel: 18734 Lbls
06:24 Spent Fuel: 18324 Lbls
06:24 Flight Length: 443 NM
06:24 TOD Land Length: 148 NM

Exportar CSV

Powered by Drupal - Modified by Danger4k